createdAt,value
2019-05-07T00:00:37.821Z,21.06
2019-05-07T00:01:37.829Z,21.10
2019-05-07T00:02:37.809Z,21.14
2019-05-07T00:03:37.806Z,21.12
2019-05-07T00:04:37.801Z,21.10
2019-05-07T00:05:37.799Z,21.12
2019-05-07T00:06:37.792Z,21.10
2019-05-07T00:07:37.868Z,21.10
2019-05-07T00:08:37.772Z,21.09
2019-05-07T00:09:37.777Z,21.09
2019-05-07T00:10:37.758Z,21.03
2019-05-07T00:11:37.799Z,21.07
2019-05-07T00:12:37.742Z,21.09
2019-05-07T00:13:37.735Z,21.06
2019-05-07T00:14:37.764Z,21.10
2019-05-07T00:15:37.716Z,21.07
2019-05-07T00:16:37.716Z,21.07
2019-05-07T00:17:37.726Z,21.04
2019-05-07T00:18:37.737Z,21.09
2019-05-07T00:19:37.685Z,21.07
2019-05-07T00:20:37.688Z,21.13
2019-05-07T00:21:37.673Z,21.03
2019-05-07T00:22:37.658Z,21.06
2019-05-07T00:23:37.683Z,21.07
2019-05-07T00:24:37.649Z,20.97
2019-05-07T00:25:37.642Z,21.03
2019-05-07T00:26:37.629Z,21.13
2019-05-07T00:27:37.686Z,21.09
2019-05-07T00:28:37.614Z,21.03
2019-05-07T00:29:37.622Z,21.10
2019-05-07T00:30:37.597Z,21.12
2019-05-07T00:31:37.592Z,21.04
2019-05-07T00:32:37.586Z,21.09
2019-05-07T00:33:37.573Z,21.01
2019-05-07T00:34:37.587Z,21.07
2019-05-07T00:35:37.691Z,21.12
2019-05-07T00:36:37.583Z,21.04
2019-05-07T00:37:37.562Z,21.10
2019-05-07T00:38:37.554Z,21.04
2019-05-07T00:39:37.591Z,21.10
2019-05-07T00:40:37.551Z,21.03
2019-05-07T00:41:37.551Z,21.01
2019-05-07T00:42:37.525Z,21.09
2019-05-07T00:43:37.520Z,21.10
2019-05-07T00:44:37.506Z,21.04
2019-05-07T00:45:37.503Z,21.09
2019-05-07T00:46:37.534Z,21.10
2019-05-07T00:47:37.578Z,21.01
2019-05-07T00:48:37.477Z,21.01
2019-05-07T00:49:37.586Z,21.09
2019-05-07T00:50:37.474Z,21.07
2019-05-07T00:51:37.594Z,21.09
2019-05-07T00:52:37.443Z,21.07
2019-05-07T00:53:37.515Z,21.04
2019-05-07T00:54:37.448Z,21.04
2019-05-07T00:55:37.500Z,21.06
2019-05-07T00:56:37.434Z,21.04
2019-05-07T00:57:37.425Z,21.04
2019-05-07T00:58:37.432Z,21.06
2019-05-07T00:59:37.434Z,21.03
2019-05-07T01:00:37.459Z,21.04
2019-05-07T01:01:37.398Z,21.03
2019-05-07T01:02:37.397Z,21.07
2019-05-07T01:03:37.378Z,20.98
2019-05-07T01:04:37.404Z,21.06
2019-05-07T01:05:37.389Z,21.07
2019-05-07T01:06:37.362Z,21.07
2019-05-07T01:07:37.354Z,21.04
2019-05-07T01:08:37.342Z,21.07
2019-05-07T01:09:37.339Z,21.01
2019-05-07T01:10:37.330Z,20.98
2019-05-07T01:11:37.371Z,21.06
2019-05-07T01:12:37.321Z,21.01
2019-05-07T01:13:37.323Z,21.03
2019-05-07T01:14:37.322Z,21.01
2019-05-07T01:15:37.338Z,21.03
2019-05-07T01:16:37.314Z,20.99
2019-05-07T01:17:37.308Z,21.07
2019-05-07T01:18:37.285Z,21.06
2019-05-07T01:19:37.275Z,21.04
2019-05-07T01:20:37.269Z,20.98
2019-05-07T01:21:37.276Z,21.01
2019-05-07T01:22:37.277Z,21.03
2019-05-07T01:23:37.270Z,21.07
2019-05-07T01:24:37.252Z,20.98
2019-05-07T01:25:37.232Z,21.04
2019-05-07T01:26:37.221Z,21.04
2019-05-07T01:27:37.216Z,20.99
2019-05-07T01:28:37.255Z,20.98
2019-05-07T01:29:37.245Z,21.01
2019-05-07T01:30:37.220Z,20.99
2019-05-07T01:31:37.207Z,20.98
2019-05-07T01:32:37.209Z,20.95
2019-05-07T01:33:37.183Z,21.04
2019-05-07T01:34:37.182Z,21.04
2019-05-07T01:35:37.285Z,21.04
2019-05-07T01:36:37.165Z,20.97
2019-05-07T01:37:37.156Z,20.99
2019-05-07T01:38:37.147Z,21.04
2019-05-07T01:39:37.143Z,20.99
2019-05-07T01:40:37.157Z,20.97
2019-05-07T01:41:37.140Z,20.99
2019-05-07T01:42:37.118Z,21.04
2019-05-07T01:43:37.113Z,21.01
2019-05-07T01:44:37.102Z,21.03
2019-05-07T01:45:46.498Z,21.07
2019-05-07T01:46:38.128Z,21.04
2019-05-07T01:47:37.079Z,21.01
2019-05-07T01:48:37.083Z,21.01
2019-05-07T01:49:37.098Z,21.01
2019-05-07T01:50:37.068Z,21.03
2019-05-07T01:51:37.075Z,21.03
2019-05-07T01:52:37.077Z,20.98
2019-05-07T01:53:37.049Z,20.92
2019-05-07T01:54:37.054Z,20.94
2019-05-07T01:55:37.036Z,20.95
2019-05-07T01:56:37.024Z,20.95
2019-05-07T01:57:37.014Z,20.94
2019-05-07T01:58:37.024Z,20.95
2019-05-07T01:59:37.016Z,21.01
2019-05-07T02:00:36.988Z,20.98
2019-05-07T02:01:36.986Z,21.03
2019-05-07T02:02:36.983Z,20.94
2019-05-07T02:03:36.977Z,21.01
2019-05-07T02:04:36.986Z,20.97
2019-05-07T02:05:36.966Z,21.01
2019-05-07T02:06:36.968Z,21.03
2019-05-07T02:07:36.977Z,20.97
2019-05-07T02:08:36.974Z,21.09
2019-05-07T02:09:36.971Z,20.97
2019-05-07T02:10:37.040Z,21.01
2019-05-07T02:11:36.948Z,21.01
2019-05-07T02:12:36.944Z,21.01
2019-05-07T02:13:36.938Z,20.99
2019-05-07T02:14:37.026Z,20.99
2019-05-07T02:15:36.926Z,20.94
2019-05-07T02:16:36.996Z,20.97
2019-05-07T02:17:36.900Z,20.97
2019-05-07T02:18:36.926Z,20.97
2019-05-07T02:19:36.918Z,20.98
2019-05-07T02:20:36.889Z,20.97
2019-05-07T02:21:36.904Z,20.99
2019-05-07T02:22:36.967Z,20.94
2019-05-07T02:23:36.873Z,21.03
2019-05-07T02:24:36.867Z,20.98
2019-05-07T02:25:36.902Z,20.98
2019-05-07T02:26:36.848Z,20.97
2019-05-07T02:27:36.836Z,20.91
2019-05-07T02:28:36.881Z,20.88
2019-05-07T02:29:38.269Z,20.89
2019-05-07T02:30:36.821Z,20.94
2019-05-07T02:31:36.841Z,21.04
2019-05-07T02:32:36.820Z,21.01
2019-05-07T02:33:36.822Z,20.94
2019-05-07T02:34:36.846Z,20.97
2019-05-07T02:35:36.805Z,20.98
2019-05-07T02:36:36.786Z,20.97
2019-05-07T02:37:48.700Z,21.03
2019-05-07T02:38:37.771Z,20.97
2019-05-07T02:39:36.786Z,20.92
2019-05-07T02:40:36.776Z,20.95
2019-05-07T02:41:36.744Z,20.98
2019-05-07T02:42:36.739Z,20.95
2019-05-07T02:43:36.736Z,20.95
2019-05-07T02:44:36.744Z,20.99
2019-05-07T02:45:36.715Z,20.97
2019-05-07T02:46:36.818Z,20.95
2019-05-07T02:47:36.724Z,20.98
2019-05-07T02:48:36.696Z,20.92
2019-05-07T02:49:36.689Z,20.89
2019-05-07T02:50:36.690Z,20.89
2019-05-07T02:51:36.671Z,21.03
2019-05-07T02:52:36.720Z,20.95
2019-05-07T02:53:36.658Z,20.95
2019-05-07T02:54:36.665Z,20.99
2019-05-07T02:55:36.660Z,20.95
2019-05-07T02:56:36.651Z,20.92
2019-05-07T02:57:36.680Z,20.92
2019-05-07T02:58:36.661Z,20.95
2019-05-07T02:59:36.638Z,20.95
2019-05-07T03:00:36.603Z,20.97
2019-05-07T03:01:36.602Z,20.94
2019-05-07T03:02:36.591Z,20.91
2019-05-07T03:03:36.660Z,20.95
2019-05-07T03:04:36.596Z,20.97
2019-05-07T03:05:36.609Z,21.01
2019-05-07T03:06:36.598Z,20.89
2019-05-07T03:07:36.605Z,20.95
2019-05-07T03:08:36.577Z,20.94
2019-05-07T03:09:36.587Z,20.99
2019-05-07T03:10:36.667Z,20.89
2019-05-07T03:11:36.570Z,21.03
2019-05-07T03:12:36.551Z,20.95
2019-05-07T03:13:36.541Z,20.95
2019-05-07T03:14:36.539Z,20.89
2019-05-07T03:15:36.522Z,20.97
2019-05-07T03:16:43.694Z,20.94
2019-05-07T03:17:37.534Z,20.94
2019-05-07T03:18:36.499Z,20.92
2019-05-07T03:19:36.502Z,20.92
2019-05-07T03:20:36.513Z,20.94
2019-05-07T03:21:36.546Z,20.97
2019-05-07T03:22:36.576Z,20.88
2019-05-07T03:23:36.501Z,20.95
2019-05-07T03:24:36.483Z,20.92
2019-05-07T03:25:36.471Z,20.88
2019-05-07T03:26:36.469Z,20.89
2019-05-07T03:27:36.443Z,20.94
2019-05-07T03:28:36.446Z,20.89
2019-05-07T03:29:36.482Z,20.95
2019-05-07T03:30:36.747Z,20.92
2019-05-07T03:31:36.878Z,20.94
2019-05-07T03:32:39.026Z,20.92
2019-05-07T03:33:37.104Z,20.88
2019-05-07T03:34:37.386Z,20.95
2019-05-07T03:35:37.897Z,20.94
2019-05-07T03:36:36.388Z,20.95
2019-05-07T03:37:36.736Z,20.95
2019-05-07T03:38:36.390Z,20.98
2019-05-07T03:39:36.356Z,20.88
2019-05-07T03:40:36.360Z,20.94
2019-05-07T03:41:36.342Z,20.95
2019-05-07T03:42:36.339Z,20.97
2019-05-07T03:43:36.384Z,20.85
2019-05-07T03:44:36.331Z,20.94
2019-05-07T03:45:36.319Z,20.89
2019-05-07T03:46:53.278Z,20.94
2019-05-07T03:47:37.293Z,20.92
2019-05-07T03:48:36.300Z,20.92
2019-05-07T03:49:36.285Z,20.92
2019-05-07T03:50:36.274Z,20.95
2019-05-07T03:51:36.298Z,20.95
2019-05-07T03:52:36.372Z,20.95
2019-05-07T03:53:36.268Z,20.91
2019-05-07T03:54:36.280Z,20.85
2019-05-07T03:55:36.254Z,20.94
2019-05-07T03:56:36.282Z,20.95
2019-05-07T03:57:36.234Z,20.97
2019-05-07T03:58:36.236Z,20.89
2019-05-07T03:59:36.258Z,20.89
2019-05-07T04:00:36.232Z,20.94
2019-05-07T04:01:36.229Z,20.92
2019-05-07T04:02:36.219Z,20.91
2019-05-07T04:03:36.214Z,20.94
2019-05-07T04:04:36.248Z,20.89
2019-05-07T04:05:36.207Z,20.91
2019-05-07T04:06:36.188Z,20.87
2019-05-07T04:07:36.189Z,20.91
2019-05-07T04:08:36.171Z,20.91
2019-05-07T04:09:36.197Z,20.91
2019-05-07T04:10:36.215Z,20.87
2019-05-07T04:11:36.162Z,20.87
2019-05-07T04:12:36.159Z,20.94
2019-05-07T04:13:36.156Z,20.85
2019-05-07T04:14:36.169Z,20.88
2019-05-07T04:15:36.141Z,20.85
2019-05-07T04:16:36.169Z,20.88
2019-05-07T04:17:36.127Z,20.94
2019-05-07T04:18:36.125Z,20.91
2019-05-07T04:19:36.113Z,20.92
2019-05-07T04:20:36.094Z,20.92
2019-05-07T04:21:36.096Z,20.94
2019-05-07T04:22:36.107Z,20.87
2019-05-07T04:23:36.078Z,20.91
2019-05-07T04:24:36.089Z,20.88
2019-05-07T04:25:36.081Z,20.94
2019-05-07T04:26:36.068Z,20.84
2019-05-07T04:27:36.061Z,20.91
2019-05-07T04:28:36.101Z,20.92
2019-05-07T04:29:36.079Z,20.94
2019-05-07T04:30:36.046Z,20.80
2019-05-07T04:31:36.072Z,20.84
2019-05-07T04:32:36.047Z,20.89
2019-05-07T04:33:36.025Z,20.85
2019-05-07T04:34:36.027Z,20.88
2019-05-07T04:35:36.055Z,20.87
2019-05-07T04:36:36.003Z,20.85
2019-05-07T04:37:36.016Z,20.85
2019-05-07T04:38:35.993Z,20.89
2019-05-07T04:39:35.983Z,20.82
2019-05-07T04:40:35.973Z,20.82
2019-05-07T04:41:35.963Z,20.85
2019-05-07T04:42:35.955Z,20.91
2019-05-07T04:43:35.965Z,20.95
2019-05-07T04:44:35.950Z,20.84
2019-05-07T04:45:35.950Z,20.88
2019-05-07T04:46:35.952Z,20.88
2019-05-07T04:47:42.969Z,20.84
2019-05-07T04:48:36.957Z,20.84
2019-05-07T04:49:35.923Z,20.87
2019-05-07T04:50:42.974Z,20.91
2019-05-07T04:51:37.003Z,20.80
2019-05-07T04:52:35.900Z,20.85
2019-05-07T04:53:35.915Z,20.91
2019-05-07T04:54:35.913Z,20.91
2019-05-07T04:55:35.912Z,20.88
2019-05-07T04:56:35.865Z,20.82
2019-05-07T04:57:35.882Z,20.87
2019-05-07T04:58:35.865Z,20.82
2019-05-07T04:59:35.870Z,20.89
2019-05-07T05:00:35.880Z,20.82
2019-05-07T05:01:35.883Z,20.84
2019-05-07T05:02:35.839Z,20.89
2019-05-07T05:03:39.175Z,20.89
2019-05-07T05:04:35.837Z,20.85
2019-05-07T05:05:35.827Z,20.79
2019-05-07T05:06:35.829Z,20.80
2019-05-07T05:07:35.825Z,20.77
2019-05-07T05:08:35.802Z,20.80
2019-05-07T05:09:35.826Z,20.79
2019-05-07T05:10:35.792Z,20.82
2019-05-07T05:11:35.794Z,20.85
2019-05-07T05:12:35.779Z,20.89
2019-05-07T05:13:35.766Z,20.82
2019-05-07T05:14:35.791Z,20.87
2019-05-07T05:15:35.773Z,20.85
2019-05-07T05:16:35.740Z,20.87
2019-05-07T05:17:47.121Z,20.82
2019-05-07T05:18:36.718Z,20.82
2019-05-07T05:19:35.738Z,20.85
2019-05-07T05:20:35.730Z,20.82
2019-05-07T05:21:35.731Z,20.82
2019-05-07T05:22:35.710Z,20.84
2019-05-07T05:23:35.705Z,20.87
2019-05-07T05:24:35.698Z,20.92
2019-05-07T05:25:35.688Z,20.87
2019-05-07T05:26:35.666Z,20.87
2019-05-07T05:27:35.673Z,20.85
2019-05-07T05:28:35.649Z,20.87
2019-05-07T05:29:35.673Z,20.87
2019-05-07T05:30:35.663Z,20.84
2019-05-07T05:31:35.635Z,20.94
2019-05-07T05:32:35.627Z,20.91
2019-05-07T05:33:35.639Z,20.85
2019-05-07T05:34:35.607Z,20.80
2019-05-07T05:35:35.603Z,20.85
2019-05-07T05:36:35.599Z,20.84
2019-05-07T05:37:35.580Z,20.84
2019-05-07T05:38:35.583Z,20.84
2019-05-07T05:39:35.669Z,20.88
2019-05-07T05:40:35.554Z,20.80
2019-05-07T05:41:37.899Z,20.84
2019-05-07T05:42:35.549Z,20.84
2019-05-07T05:43:35.537Z,20.88
2019-05-07T05:44:35.526Z,20.88
2019-05-07T05:45:35.548Z,20.80
2019-05-07T05:46:35.512Z,20.87
2019-05-07T05:47:35.550Z,20.92
2019-05-07T05:48:35.507Z,20.76
2019-05-07T05:49:35.510Z,20.91
2019-05-07T05:50:35.478Z,20.85
2019-05-07T05:51:35.491Z,20.87
2019-05-07T05:52:35.482Z,20.92
2019-05-07T05:53:35.475Z,20.84
2019-05-07T05:54:35.464Z,20.84
2019-05-07T05:55:35.453Z,20.88
2019-05-07T05:56:35.448Z,20.82
2019-05-07T05:57:35.481Z,20.84
2019-05-07T05:58:35.432Z,20.91
2019-05-07T05:59:48.163Z,20.80
2019-05-07T06:00:36.407Z,20.91
2019-05-07T06:01:35.417Z,20.89
2019-05-07T06:02:35.409Z,20.89
2019-05-07T06:03:35.400Z,20.95
2019-05-07T06:04:35.392Z,20.89
2019-05-07T06:05:35.417Z,20.89
2019-05-07T06:06:35.382Z,20.85
2019-05-07T06:07:35.370Z,20.88
2019-05-07T06:08:35.404Z,20.79
2019-05-07T06:09:35.389Z,20.88
2019-05-07T06:10:35.367Z,20.77
2019-05-07T06:11:35.373Z,20.85
2019-05-07T06:12:35.357Z,20.74
2019-05-07T06:13:35.359Z,20.88
2019-05-07T06:14:35.363Z,20.85
2019-05-07T06:15:35.490Z,20.87
2019-05-07T06:16:36.716Z,20.84
2019-05-07T06:17:35.348Z,20.85
2019-05-07T06:18:35.340Z,20.88
2019-05-07T06:19:35.318Z,20.92
2019-05-07T06:20:35.317Z,20.88
2019-05-07T06:21:35.317Z,20.82
2019-05-07T06:22:35.302Z,20.85
2019-05-07T06:23:35.302Z,20.92
2019-05-07T06:24:35.283Z,20.87
2019-05-07T06:25:35.288Z,20.85
2019-05-07T06:26:35.305Z,20.84
2019-05-07T06:27:35.368Z,20.94
2019-05-07T06:28:35.276Z,20.94
2019-05-07T06:29:35.271Z,20.91
2019-05-07T06:30:35.266Z,20.88
2019-05-07T06:31:35.266Z,20.89
2019-05-07T06:32:35.261Z,20.91
2019-05-07T06:33:35.253Z,20.82
2019-05-07T06:34:35.236Z,20.91
2019-05-07T06:35:35.242Z,20.87
2019-05-07T06:36:35.252Z,20.89
2019-05-07T06:37:35.219Z,20.85
2019-05-07T06:38:35.219Z,20.85
2019-05-07T06:39:35.240Z,20.87
2019-05-07T06:40:35.192Z,20.92
2019-05-07T06:41:35.186Z,20.88
2019-05-07T06:42:35.212Z,20.89
2019-05-07T06:43:35.188Z,20.91
2019-05-07T06:44:35.157Z,20.92
2019-05-07T06:45:35.521Z,20.95
2019-05-07T06:46:35.150Z,20.92
2019-05-07T06:47:35.145Z,20.98
2019-05-07T06:48:42.256Z,21.01
2019-05-07T06:49:36.125Z,20.94
2019-05-07T06:50:35.108Z,20.95
2019-05-07T06:51:35.116Z,20.91
2019-05-07T06:52:35.100Z,20.89
2019-05-07T06:53:35.103Z,20.97
2019-05-07T06:54:35.090Z,20.87
2019-05-07T06:55:35.083Z,20.92
2019-05-07T06:56:35.069Z,20.94
2019-05-07T06:57:35.079Z,21.01
2019-05-07T06:58:35.064Z,20.94
2019-05-07T06:59:35.063Z,20.94
2019-05-07T07:00:35.069Z,20.98
2019-05-07T07:01:35.040Z,20.85
2019-05-07T07:02:35.031Z,20.99
2019-05-07T07:03:35.039Z,21.06
2019-05-07T07:04:35.019Z,20.94
2019-05-07T07:05:35.024Z,20.99
2019-05-07T07:06:35.197Z,20.95
2019-05-07T07:07:37.224Z,20.97
2019-05-07T07:08:34.983Z,20.98
2019-05-07T07:09:35.069Z,20.97
2019-05-07T07:10:34.991Z,20.98
2019-05-07T07:11:34.989Z,21.03
2019-05-07T07:12:34.957Z,21.04
2019-05-07T07:13:34.970Z,21.01
2019-05-07T07:14:34.936Z,20.97
2019-05-07T07:15:34.932Z,20.98
2019-05-07T07:16:34.950Z,20.97
2019-05-07T07:17:34.907Z,20.92
2019-05-07T07:18:48.669Z,20.99
2019-05-07T07:19:36.301Z,21.03
2019-05-07T07:20:34.889Z,20.98
2019-05-07T07:21:34.912Z,21.03
2019-05-07T07:22:34.877Z,20.97
2019-05-07T07:23:34.865Z,21.07
2019-05-07T07:24:34.866Z,20.97
2019-05-07T07:25:34.863Z,20.97
2019-05-07T07:26:34.844Z,20.99
2019-05-07T07:27:34.853Z,20.99
2019-05-07T07:28:34.823Z,21.03
2019-05-07T07:29:34.823Z,21.04
2019-05-07T07:30:34.815Z,21.01
2019-05-07T07:31:34.802Z,20.99
2019-05-07T07:32:34.794Z,20.98
2019-05-07T07:33:34.808Z,21.04
2019-05-07T07:34:34.782Z,21.03
2019-05-07T07:35:34.790Z,21.04
2019-05-07T07:36:34.771Z,21.03
2019-05-07T07:37:34.769Z,21.06
2019-05-07T07:38:34.763Z,21.04
2019-05-07T07:39:34.757Z,21.01
2019-05-07T07:40:34.752Z,20.98
2019-05-07T07:41:34.737Z,21.01
2019-05-07T07:42:34.731Z,21.04
2019-05-07T07:43:34.723Z,20.95
2019-05-07T07:44:34.715Z,20.98
2019-05-07T07:45:34.746Z,20.99
2019-05-07T07:46:34.705Z,21.01
2019-05-07T07:47:34.699Z,20.98
2019-05-07T07:48:34.687Z,21.01
2019-05-07T07:49:34.684Z,20.99
2019-05-07T07:50:34.664Z,21.03
2019-05-07T07:51:41.521Z,21.03
2019-05-07T07:52:35.669Z,21.03
2019-05-07T07:53:35.543Z,21.04
2019-05-07T07:54:34.631Z,20.99
2019-05-07T07:55:34.659Z,20.98
2019-05-07T07:56:48.897Z,21.04
2019-05-07T07:57:35.663Z,20.99
2019-05-07T07:58:34.607Z,20.97
2019-05-07T07:59:34.604Z,20.99
2019-05-07T08:00:34.590Z,21.13
2019-05-07T08:01:34.593Z,21.03
2019-05-07T08:02:34.590Z,21.07
2019-05-07T08:03:34.596Z,21.10
2019-05-07T08:04:34.559Z,21.07
2019-05-07T08:05:34.551Z,20.98
2019-05-07T08:06:34.565Z,21.13
2019-05-07T08:07:34.545Z,21.07
2019-05-07T08:08:34.535Z,21.09
2019-05-07T08:09:34.694Z,21.04
2019-05-07T08:10:34.538Z,21.13
2019-05-07T08:11:34.510Z,21.04
2019-05-07T08:12:34.501Z,21.10
2019-05-07T08:13:34.509Z,21.03
2019-05-07T08:14:34.501Z,21.10
2019-05-07T08:15:34.511Z,21.09
2019-05-07T08:16:34.470Z,21.10
2019-05-07T08:17:34.469Z,21.07
2019-05-07T08:18:34.501Z,21.10
2019-05-07T08:19:34.450Z,21.10
2019-05-07T08:20:34.494Z,21.10
2019-05-07T08:21:34.497Z,21.10
2019-05-07T08:22:34.450Z,21.10
2019-05-07T08:23:34.448Z,21.03
2019-05-07T08:24:34.437Z,21.13
2019-05-07T08:25:34.431Z,20.99
2019-05-07T08:26:34.417Z,21.04
2019-05-07T08:27:34.436Z,21.14
2019-05-07T08:28:34.403Z,21.06
2019-05-07T08:29:34.395Z,21.04
2019-05-07T08:30:34.433Z,21.09
2019-05-07T08:31:34.390Z,21.13
2019-05-07T08:32:34.381Z,21.13
2019-05-07T08:33:34.462Z,21.13
2019-05-07T08:34:34.364Z,21.06
2019-05-07T08:35:34.349Z,21.09
2019-05-07T08:36:34.343Z,21.14
2019-05-07T08:37:34.335Z,21.10
2019-05-07T08:38:34.328Z,21.19
2019-05-07T08:39:34.325Z,21.10
2019-05-07T08:40:34.311Z,21.12
2019-05-07T08:41:34.305Z,21.07
2019-05-07T08:42:34.293Z,21.10
2019-05-07T08:43:34.283Z,21.07
2019-05-07T08:44:34.278Z,21.09
2019-05-07T08:45:34.407Z,21.07
2019-05-07T08:46:34.269Z,21.09
2019-05-07T08:47:34.278Z,21.12
2019-05-07T08:48:34.244Z,21.12
2019-05-07T08:49:39.551Z,21.12
2019-05-07T08:50:35.253Z,21.13
2019-05-07T08:51:34.229Z,21.14
2019-05-07T08:52:34.228Z,21.10
2019-05-07T08:53:34.247Z,21.17
2019-05-07T08:54:34.201Z,21.13
2019-05-07T08:55:34.210Z,21.17
2019-05-07T08:56:34.190Z,21.17
2019-05-07T08:57:34.193Z,21.09
2019-05-07T08:58:34.191Z,21.09
2019-05-07T08:59:34.197Z,21.16
2019-05-07T09:00:34.180Z,21.10
2019-05-07T09:01:34.164Z,21.13
2019-05-07T09:02:34.170Z,21.10
2019-05-07T09:03:34.154Z,21.25
2019-05-07T09:04:34.147Z,21.22
2019-05-07T09:05:34.137Z,21.19
2019-05-07T09:06:34.135Z,21.28
2019-05-07T09:07:34.121Z,21.17
2019-05-07T09:08:34.152Z,21.22
2019-05-07T09:09:34.108Z,21.21
2019-05-07T09:10:34.091Z,21.21
2019-05-07T09:11:34.087Z,21.22
2019-05-07T09:12:34.080Z,21.27
2019-05-07T09:13:34.079Z,21.25
2019-05-07T09:14:34.077Z,21.27
2019-05-07T09:15:34.085Z,21.25
2019-05-07T09:16:34.062Z,21.27
2019-05-07T09:17:34.050Z,21.24
2019-05-07T09:18:34.042Z,21.17
2019-05-07T09:19:47.343Z,21.17
2019-05-07T09:20:35.110Z,21.29
2019-05-07T09:21:34.013Z,21.24
2019-05-07T09:22:34.045Z,21.24
2019-05-07T09:23:33.991Z,21.22
2019-05-07T09:24:33.987Z,21.19
2019-05-07T09:25:33.972Z,21.25
2019-05-07T09:26:33.985Z,21.28
2019-05-07T09:27:33.967Z,21.22
2019-05-07T09:28:33.954Z,21.16
2019-05-07T09:29:33.952Z,21.28
2019-05-07T09:30:33.934Z,21.22
2019-05-07T09:31:34.000Z,21.31
2019-05-07T09:32:33.967Z,21.24
2019-05-07T09:33:33.927Z,21.27
2019-05-07T09:34:33.909Z,21.31
2019-05-07T09:35:33.930Z,21.22
2019-05-07T09:36:34.007Z,21.24
2019-05-07T09:37:33.917Z,21.25
2019-05-07T09:38:33.960Z,21.14
2019-05-07T09:39:33.871Z,21.27
2019-05-07T09:40:33.854Z,21.16
2019-05-07T09:41:33.874Z,21.16
2019-05-07T09:42:33.858Z,21.29
2019-05-07T09:43:33.837Z,21.28
2019-05-07T09:44:33.844Z,21.22
2019-05-07T09:45:33.846Z,21.29
2019-05-07T09:46:33.847Z,21.17
2019-05-07T09:47:33.822Z,21.28
2019-05-07T09:48:33.993Z,21.28
2019-05-07T09:49:33.803Z,21.22
2019-05-07T09:50:33.831Z,21.21
2019-05-07T09:51:33.793Z,21.31
2019-05-07T09:52:33.785Z,21.24
2019-05-07T09:53:33.819Z,21.25
2019-05-07T09:54:33.778Z,21.28
2019-05-07T09:55:33.858Z,21.32
2019-05-07T09:56:33.779Z,21.29
2019-05-07T09:57:34.733Z,21.29
2019-05-07T09:58:38.477Z,21.22
2019-05-07T09:59:34.723Z,21.29
2019-05-07T10:00:33.724Z,21.25
2019-05-07T10:01:33.729Z,21.32
2019-05-07T10:02:33.788Z,21.34
2019-05-07T10:03:33.697Z,21.34
2019-05-07T10:04:33.694Z,21.31
2019-05-07T10:05:33.697Z,21.31
2019-05-07T10:06:33.666Z,21.28
2019-05-07T10:07:33.669Z,21.27
2019-05-07T10:08:33.668Z,21.29
2019-05-07T10:09:33.656Z,21.31
2019-05-07T10:10:33.645Z,21.24
2019-05-07T10:11:33.644Z,21.29
2019-05-07T10:12:33.659Z,21.28
2019-05-07T10:13:33.619Z,21.37
2019-05-07T10:14:33.635Z,21.27
2019-05-07T10:15:33.619Z,21.37
2019-05-07T10:16:33.605Z,21.37
2019-05-07T10:17:33.591Z,21.27
2019-05-07T10:18:33.606Z,21.32
2019-05-07T10:19:33.728Z,21.42
2019-05-07T10:20:33.579Z,21.24
2019-05-07T10:21:33.558Z,21.32
2019-05-07T10:22:33.567Z,21.31
2019-05-07T10:23:33.540Z,21.29
2019-05-07T10:24:33.541Z,21.40
2019-05-07T10:25:33.526Z,21.28
2019-05-07T10:26:33.523Z,21.32
2019-05-07T10:27:33.520Z,21.37
2019-05-07T10:28:33.500Z,21.35
2019-05-07T10:29:33.502Z,21.43
2019-05-07T10:30:33.485Z,21.40
2019-05-07T10:31:33.486Z,21.27
2019-05-07T10:32:33.560Z,21.38
2019-05-07T10:33:33.472Z,21.37
2019-05-07T10:34:33.472Z,21.42
2019-05-07T10:35:33.790Z,21.42
2019-05-07T10:36:33.453Z,21.38
2019-05-07T10:37:33.450Z,21.44
2019-05-07T10:38:33.465Z,21.40
2019-05-07T10:39:33.447Z,21.42
2019-05-07T10:40:33.421Z,21.38
2019-05-07T10:41:33.409Z,21.44
2019-05-07T10:42:33.402Z,21.42
2019-05-07T10:43:33.401Z,21.46
2019-05-07T10:44:33.420Z,21.40
2019-05-07T10:45:33.398Z,21.40
2019-05-07T10:46:33.401Z,21.34
2019-05-07T10:47:33.390Z,21.43
2019-05-07T10:48:33.415Z,21.42
2019-05-07T10:49:33.397Z,21.44
2019-05-07T10:50:38.974Z,21.46
2019-05-07T10:51:34.362Z,21.34
2019-05-07T10:52:33.354Z,21.44
2019-05-07T10:53:33.355Z,21.44
2019-05-07T10:54:33.339Z,21.35
2019-05-07T10:55:33.331Z,21.42
2019-05-07T10:56:33.351Z,21.49
2019-05-07T10:57:33.315Z,21.50
2019-05-07T10:58:33.305Z,21.43
2019-05-07T10:59:33.308Z,21.37
2019-05-07T11:00:33.296Z,21.40
2019-05-07T11:01:33.303Z,21.46
2019-05-07T11:02:33.290Z,21.44
2019-05-07T11:03:33.269Z,21.38
2019-05-07T11:04:42.173Z,21.43
2019-05-07T11:05:34.254Z,21.34
2019-05-07T11:06:33.246Z,21.53
2019-05-07T11:07:33.270Z,21.49
2019-05-07T11:08:33.237Z,21.46
2019-05-07T11:09:33.220Z,21.50
2019-05-07T11:10:33.301Z,21.40
2019-05-07T11:11:33.208Z,21.50
2019-05-07T11:12:33.208Z,21.52
2019-05-07T11:13:33.197Z,21.56
2019-05-07T11:14:33.303Z,21.49
2019-05-07T11:15:33.194Z,21.47
2019-05-07T11:16:33.178Z,21.47
2019-05-07T11:17:33.161Z,21.47
2019-05-07T11:18:33.154Z,21.43
2019-05-07T11:19:33.168Z,21.35
2019-05-07T11:20:45.669Z,21.43
2019-05-07T11:21:34.141Z,21.40
2019-05-07T11:22:33.134Z,21.46
2019-05-07T11:23:33.120Z,21.46
2019-05-07T11:24:33.125Z,21.38
2019-05-07T11:25:33.093Z,21.42
2019-05-07T11:26:33.179Z,21.42
2019-05-07T11:27:33.205Z,21.38
2019-05-07T11:28:33.106Z,21.43
2019-05-07T11:29:36.233Z,21.38
2019-05-07T11:30:33.055Z,21.40
2019-05-07T11:31:33.324Z,21.47
2019-05-07T11:32:33.046Z,21.43
2019-05-07T11:33:33.032Z,21.47
2019-05-07T11:34:33.021Z,21.44
2019-05-07T11:35:33.019Z,21.44
2019-05-07T11:36:34.467Z,21.38
2019-05-07T11:37:33.098Z,21.47
2019-05-07T11:38:33.477Z,21.46
2019-05-07T11:39:33.255Z,21.47
2019-05-07T11:40:34.777Z,21.50
2019-05-07T11:41:32.990Z,21.42
2019-05-07T11:42:32.956Z,21.52
2019-05-07T11:43:32.950Z,21.53
2019-05-07T11:44:32.949Z,21.58
2019-05-07T11:45:32.936Z,21.58
2019-05-07T11:46:33.041Z,21.52
2019-05-07T11:47:32.926Z,21.44
2019-05-07T11:48:36.223Z,21.54
2019-05-07T11:49:32.931Z,21.44
2019-05-07T11:50:33.093Z,21.54
2019-05-07T11:51:33.367Z,21.42
2019-05-07T11:52:35.601Z,21.47
2019-05-07T11:53:32.952Z,21.49
2019-05-07T11:54:32.875Z,21.44
2019-05-07T11:55:32.853Z,21.54
2019-05-07T11:56:33.013Z,21.40
2019-05-07T11:57:32.838Z,21.43
2019-05-07T11:58:32.829Z,21.50
2019-05-07T11:59:32.929Z,21.49
2019-05-07T12:00:32.831Z,21.52
2019-05-07T12:01:43.478Z,21.40
2019-05-07T12:02:33.810Z,21.49
2019-05-07T12:03:32.804Z,21.40
2019-05-07T12:04:32.781Z,21.43
2019-05-07T12:05:33.317Z,21.46
2019-05-07T12:06:32.772Z,21.37
2019-05-07T12:07:32.888Z,21.49
2019-05-07T12:08:42.542Z,21.46
2019-05-07T12:09:33.814Z,21.53
2019-05-07T12:10:32.947Z,21.35
2019-05-07T12:11:32.737Z,21.50
2019-05-07T12:12:32.714Z,21.37
2019-05-07T12:13:32.710Z,21.42
2019-05-07T12:14:34.912Z,21.43
2019-05-07T12:15:32.719Z,21.50
2019-05-07T12:16:32.697Z,21.44
2019-05-07T12:17:32.694Z,21.38
2019-05-07T12:18:32.686Z,21.43
2019-05-07T12:19:33.169Z,21.47
2019-05-07T12:20:32.677Z,21.46
2019-05-07T12:21:32.660Z,21.42
2019-05-07T12:22:32.666Z,21.43
2019-05-07T12:23:33.255Z,21.49
2019-05-07T12:24:32.911Z,21.43
2019-05-07T12:25:32.632Z,21.43
2019-05-07T12:26:32.629Z,21.40
2019-05-07T12:27:32.621Z,21.43
2019-05-07T12:28:32.981Z,21.44
2019-05-07T12:29:32.607Z,21.38
2019-05-07T12:30:32.750Z,21.53
2019-05-07T12:31:33.617Z,21.38
2019-05-07T12:32:32.606Z,21.54
2019-05-07T12:33:32.603Z,21.38
2019-05-07T12:34:32.606Z,21.52
2019-05-07T12:35:32.575Z,21.40
2019-05-07T12:36:32.656Z,21.47
2019-05-07T12:37:32.570Z,21.54
2019-05-07T12:38:32.580Z,21.40
2019-05-07T12:39:32.544Z,21.52
2019-05-07T12:40:32.628Z,21.42
2019-05-07T12:41:33.653Z,21.44
2019-05-07T12:42:32.754Z,21.40
2019-05-07T12:43:32.526Z,21.44
2019-05-07T12:44:32.524Z,21.44
2019-05-07T12:45:32.507Z,21.43
2019-05-07T12:46:33.398Z,21.40
2019-05-07T12:47:32.497Z,21.47
2019-05-07T12:48:32.474Z,21.46
2019-05-07T12:49:32.601Z,21.50
2019-05-07T12:50:32.466Z,21.43
2019-05-07T12:51:37.225Z,21.43
2019-05-07T12:52:33.459Z,21.35